createdAt,value
2023-01-23T00:00:08.860Z,5.36
2023-01-23T00:01:06.863Z,5.4
2023-01-23T00:02:08.299Z,5.4
2023-01-23T00:03:08.708Z,5.4
2023-01-23T00:04:08.947Z,5.4
2023-01-23T00:05:08.524Z,5.4
2023-01-23T00:06:08.592Z,5.4
2023-01-23T00:07:08.666Z,5.4
2023-01-23T00:08:08.055Z,5.44
2023-01-23T00:09:08.952Z,5.4
2023-01-23T00:10:08.502Z,5.4
2023-01-23T00:11:08.769Z,5.4
2023-01-23T00:12:08.605Z,5.4
2023-01-23T00:13:08.549Z,5.4
2023-01-23T00:14:08.736Z,5.4
2023-01-23T00:15:08.216Z,5.4
2023-01-23T00:16:09.625Z,5.47
2023-01-23T00:17:08.212Z,5.44
2023-01-23T00:18:08.853Z,5.4
2023-01-23T00:19:08.366Z,5.4
2023-01-23T00:20:08.365Z,5.44
2023-01-23T00:21:08.972Z,5.4
2023-01-23T00:22:08.561Z,5.4
2023-01-23T00:23:06.930Z,5.4
2023-01-23T00:24:08.406Z,5.4
2023-01-23T00:25:08.352Z,5.4
2023-01-23T00:26:08.717Z,5.4
2023-01-23T00:27:08.712Z,5.44
2023-01-23T00:28:08.309Z,5.4
2023-01-23T00:29:08.622Z,5.4
2023-01-23T00:30:08.897Z,5.44
2023-01-23T00:31:09.270Z,5.44
2023-01-23T00:32:08.861Z,5.4
2023-01-23T00:33:08.175Z,5.4
2023-01-23T00:34:08.538Z,5.4
2023-01-23T00:35:08.769Z,5.4
2023-01-23T00:36:08.893Z,5.4
2023-01-23T00:37:08.677Z,5.36
2023-01-23T00:38:09.648Z,5.36
2023-01-23T00:39:08.695Z,5.4
2023-01-23T00:40:08.306Z,5.4
2023-01-23T00:41:10.299Z,5.36
2023-01-23T00:42:09.125Z,5.36
2023-01-23T00:43:08.475Z,5.4
2023-01-23T00:44:08.262Z,5.4
2023-01-23T00:45:09.187Z,5.36
2023-01-23T00:46:08.438Z,5.36
2023-01-23T00:47:08.261Z,5.33
2023-01-23T00:48:08.523Z,5.33
2023-01-23T00:49:08.469Z,5.33
2023-01-23T00:50:08.517Z,5.33
2023-01-23T00:51:08.922Z,5.36
2023-01-23T00:52:08.668Z,5.36
2023-01-23T00:53:08.560Z,5.36
2023-01-23T00:54:09.809Z,5.36
2023-01-23T00:55:09.145Z,5.36
2023-01-23T00:56:08.904Z,5.36
2023-01-23T00:57:08.087Z,5.36
2023-01-23T00:58:08.657Z,5.36
2023-01-23T00:59:08.785Z,5.4
2023-01-23T01:00:08.624Z,5.4
2023-01-23T01:01:08.434Z,5.44
2023-01-23T01:02:08.452Z,5.44
2023-01-23T01:03:09.672Z,5.4
2023-01-23T01:04:08.761Z,5.4
2023-01-23T01:05:08.925Z,5.4
2023-01-23T01:06:08.876Z,5.44
2023-01-23T01:07:08.170Z,5.44
2023-01-23T01:08:07.440Z,5.4
2023-01-23T01:09:08.987Z,5.44
2023-01-23T01:10:08.686Z,5.44
2023-01-23T01:11:08.168Z,5.4
2023-01-23T01:12:08.540Z,5.4
2023-01-23T01:13:08.677Z,5.4
2023-01-23T01:14:08.659Z,5.4
2023-01-23T01:15:08.613Z,5.36
2023-01-23T01:16:08.468Z,5.4
2023-01-23T01:17:08.058Z,5.4
2023-01-23T01:18:08.741Z,5.4
2023-01-23T01:19:08.530Z,5.4
2023-01-23T01:20:08.559Z,5.4
2023-01-23T01:21:09.380Z,5.36
2023-01-23T01:22:08.746Z,5.4
2023-01-23T01:23:08.885Z,5.44
2023-01-23T01:24:08.481Z,5.44
2023-01-23T01:25:08.178Z,5.44
2023-01-23T01:26:08.775Z,5.44
2023-01-23T01:27:08.959Z,5.44
2023-01-23T01:28:08.684Z,5.44
2023-01-23T01:29:09.089Z,5.4
2023-01-23T01:30:09.371Z,5.44
2023-01-23T01:31:08.661Z,5.44
2023-01-23T01:32:09.137Z,5.47
2023-01-23T01:33:08.554Z,5.47
2023-01-23T01:34:08.624Z,5.47
2023-01-23T01:35:08.535Z,5.44
2023-01-23T01:36:08.661Z,5.44
2023-01-23T01:37:08.881Z,5.44
2023-01-23T01:38:09.033Z,5.4
2023-01-23T01:39:08.763Z,5.44
2023-01-23T01:40:08.574Z,5.44
2023-01-23T01:41:08.164Z,5.47
2023-01-23T01:42:09.585Z,5.44
2023-01-23T01:43:08.470Z,5.4
2023-01-23T01:44:09.047Z,5.36
2023-01-23T01:45:08.858Z,5.4
2023-01-23T01:46:09.207Z,5.4
2023-01-23T01:47:08.632Z,5.4
2023-01-23T01:48:08.106Z,5.4
2023-01-23T01:49:08.728Z,5.4
2023-01-23T01:50:10.875Z,5.44
2023-01-23T01:51:09.361Z,5.4
2023-01-23T01:52:06.900Z,5.4
2023-01-23T01:53:06.904Z,5.4
2023-01-23T01:54:08.034Z,5.4
2023-01-23T01:55:08.368Z,5.36
2023-01-23T01:56:08.668Z,5.36
2023-01-23T01:57:08.040Z,5.36
2023-01-23T01:58:08.616Z,5.4
2023-01-23T01:59:08.480Z,5.4
2023-01-23T02:00:08.529Z,5.36
2023-01-23T02:01:08.114Z,5.36
2023-01-23T02:02:08.388Z,5.4
2023-01-23T02:03:08.468Z,5.4
2023-01-23T02:04:08.595Z,5.4
2023-01-23T02:05:08.395Z,5.4
2023-01-23T02:06:08.570Z,5.36
2023-01-23T02:07:09.373Z,5.36
2023-01-23T02:08:08.660Z,5.4
2023-01-23T02:09:08.297Z,5.36
2023-01-23T02:10:09.179Z,5.4
2023-01-23T02:11:08.395Z,5.4
2023-01-23T02:12:09.290Z,5.4
2023-01-23T02:13:08.975Z,5.4
2023-01-23T02:14:09.295Z,5.4
2023-01-23T02:15:09.660Z,5.4
2023-01-23T02:16:08.254Z,5.36
2023-01-23T02:17:09.036Z,5.36
2023-01-23T02:18:08.150Z,5.4
2023-01-23T02:19:08.360Z,5.4
2023-01-23T02:20:08.682Z,5.36
2023-01-23T02:21:08.639Z,5.4
2023-01-23T02:22:10.092Z,5.36
2023-01-23T02:23:08.304Z,5.4
2023-01-23T02:24:08.043Z,5.4
2023-01-23T02:25:10.926Z,5.4
2023-01-23T02:26:09.094Z,5.4
2023-01-23T02:27:08.357Z,5.4
2023-01-23T02:28:09.075Z,5.36
2023-01-23T02:29:08.571Z,5.33
2023-01-23T02:30:08.290Z,5.33
2023-01-23T02:31:09.000Z,5.36
2023-01-23T02:32:09.177Z,5.36
2023-01-23T02:33:08.476Z,5.36
2023-01-23T02:34:09.284Z,5.33
2023-01-23T02:35:09.139Z,5.33
2023-01-23T02:36:08.499Z,5.36
2023-01-23T02:37:08.215Z,5.33
2023-01-23T02:38:07.329Z,5.36
2023-01-23T02:39:09.422Z,5.33
2023-01-23T02:40:08.402Z,5.33
2023-01-23T02:41:08.037Z,5.33
2023-01-23T02:42:09.066Z,5.36
2023-01-23T02:43:09.452Z,5.36
2023-01-23T02:44:08.594Z,5.33
2023-01-23T02:45:08.469Z,5.36
2023-01-23T02:46:08.766Z,5.33
2023-01-23T02:47:08.096Z,5.36
2023-01-23T02:48:08.586Z,5.36
2023-01-23T02:49:08.092Z,5.36
2023-01-23T02:50:08.675Z,5.36
2023-01-23T02:51:08.250Z,5.36
2023-01-23T02:52:09.031Z,5.4
2023-01-23T02:53:08.869Z,5.4
2023-01-23T02:54:08.611Z,5.4
2023-01-23T02:55:09.118Z,5.33
2023-01-23T02:56:09.063Z,5.33
2023-01-23T02:57:08.048Z,5.36
2023-01-23T02:58:08.756Z,5.36
2023-01-23T02:59:09.757Z,5.4
2023-01-23T03:01:09.045Z,5.33
2023-01-23T03:02:08.963Z,5.33
2023-01-23T03:03:08.277Z,5.29
2023-01-23T03:04:08.282Z,5.29
2023-01-23T03:05:08.720Z,5.33
2023-01-23T03:06:08.688Z,5.36
2023-01-23T03:07:08.838Z,5.33
2023-01-23T03:08:08.831Z,5.33
2023-01-23T03:09:08.680Z,5.36
2023-01-23T03:10:08.376Z,5.36
2023-01-23T03:11:09.345Z,5.4
2023-01-23T03:12:08.524Z,5.4
2023-01-23T03:13:09.336Z,5.4
2023-01-23T03:14:08.629Z,5.36
2023-01-23T03:15:08.054Z,5.36
2023-01-23T03:16:09.005Z,5.36
2023-01-23T03:17:08.820Z,5.36
2023-01-23T03:18:08.294Z,5.36
2023-01-23T03:19:08.587Z,5.36
2023-01-23T03:20:08.780Z,5.33
2023-01-23T03:21:08.307Z,5.33
2023-01-23T03:22:09.462Z,5.36
2023-01-23T03:23:07.485Z,5.36
2023-01-23T03:24:08.115Z,5.4
2023-01-23T03:25:08.425Z,5.36
2023-01-23T03:26:08.923Z,5.36
2023-01-23T03:27:08.771Z,5.36
2023-01-23T03:28:08.584Z,5.33
2023-01-23T03:29:08.203Z,5.33
2023-01-23T03:30:08.745Z,5.33
2023-01-23T03:31:09.003Z,5.33
2023-01-23T03:32:08.166Z,5.33
2023-01-23T03:33:08.052Z,5.33
2023-01-23T03:34:08.326Z,5.33
2023-01-23T03:35:08.186Z,5.36
2023-01-23T03:36:09.611Z,5.36
2023-01-23T03:37:08.932Z,5.4
2023-01-23T03:38:08.275Z,5.4
2023-01-23T03:39:08.427Z,5.4
2023-01-23T03:40:08.155Z,5.4
2023-01-23T03:41:08.121Z,5.44
2023-01-23T03:42:08.019Z,5.44
2023-01-23T03:43:09.222Z,5.44
2023-01-23T03:44:08.658Z,5.47
2023-01-23T03:45:07.320Z,5.47
2023-01-23T03:46:08.288Z,5.44
2023-01-23T03:47:08.881Z,5.44
2023-01-23T03:48:08.488Z,5.44
2023-01-23T03:49:08.586Z,5.4
2023-01-23T03:50:08.951Z,5.4
2023-01-23T03:51:08.311Z,5.4
2023-01-23T03:52:08.106Z,5.4
2023-01-23T03:53:08.367Z,5.4
2023-01-23T03:54:08.279Z,5.4
2023-01-23T03:55:09.135Z,5.4
2023-01-23T03:56:08.109Z,5.36
2023-01-23T03:57:08.978Z,5.33
2023-01-23T03:58:08.024Z,5.29
2023-01-23T03:59:08.117Z,5.33
2023-01-23T04:00:09.285Z,5.29
2023-01-23T04:01:09.201Z,5.25
2023-01-23T04:02:08.664Z,5.25
2023-01-23T04:03:08.717Z,5.25
2023-01-23T04:04:08.899Z,5.25
2023-01-23T04:05:08.691Z,5.25
2023-01-23T04:06:08.903Z,5.22
2023-01-23T04:08:08.414Z,5.22
2023-01-23T04:09:08.808Z,5.25
2023-01-23T04:10:08.253Z,5.25
2023-01-23T04:11:08.519Z,5.29
2023-01-23T04:12:08.814Z,5.25
2023-01-23T04:13:08.908Z,5.22
2023-01-23T04:14:08.263Z,5.22
2023-01-23T04:15:09.473Z,5.25
2023-01-23T04:16:08.434Z,5.25
2023-01-23T04:17:08.315Z,5.25
2023-01-23T04:18:08.860Z,5.22
2023-01-23T04:19:09.117Z,5.18
2023-01-23T04:20:08.259Z,5.22
2023-01-23T04:21:08.610Z,5.22
2023-01-23T04:22:08.163Z,5.22
2023-01-23T04:23:08.087Z,5.18
2023-01-23T04:24:08.769Z,5.22
2023-01-23T04:25:08.092Z,5.22
2023-01-23T04:26:09.084Z,5.25
2023-01-23T04:27:09.280Z,5.25
2023-01-23T04:28:08.782Z,5.22
2023-01-23T04:29:08.721Z,5.22
2023-01-23T04:30:08.480Z,5.22
2023-01-23T04:31:08.251Z,5.25
2023-01-23T04:32:08.571Z,5.25
2023-01-23T04:33:08.554Z,5.25
2023-01-23T04:34:08.978Z,5.25
2023-01-23T04:35:08.318Z,5.18
2023-01-23T04:36:08.301Z,5.22
2023-01-23T04:37:08.632Z,5.18
2023-01-23T04:38:08.940Z,5.18
2023-01-23T04:39:08.031Z,5.18
2023-01-23T04:40:08.772Z,5.15
2023-01-23T04:41:08.521Z,5.15
2023-01-23T04:42:08.712Z,5.15
2023-01-23T04:43:08.559Z,5.11
2023-01-23T04:44:08.605Z,5.11
2023-01-23T04:45:08.663Z,5.08
2023-01-23T04:46:08.704Z,5.11
2023-01-23T04:47:08.618Z,5.11
2023-01-23T04:48:08.141Z,5.08
2023-01-23T04:49:09.230Z,5.04
2023-01-23T04:50:09.333Z,5.04
2023-01-23T04:51:08.870Z,5.01
2023-01-23T04:52:08.572Z,4.97
2023-01-23T04:53:09.008Z,4.97
2023-01-23T04:54:09.411Z,4.94
2023-01-23T04:55:08.812Z,4.9
2023-01-23T04:56:08.118Z,4.94
2023-01-23T04:57:08.405Z,4.9
2023-01-23T04:58:09.213Z,4.9
2023-01-23T04:59:08.949Z,4.87
2023-01-23T05:00:09.164Z,4.87
2023-01-23T05:01:08.243Z,4.84
2023-01-23T05:02:08.200Z,4.84
2023-01-23T05:03:08.023Z,4.84
2023-01-23T05:04:08.243Z,4.77
2023-01-23T05:05:09.107Z,4.74
2023-01-23T05:06:09.163Z,4.74
2023-01-23T05:07:09.043Z,4.77
2023-01-23T05:08:08.369Z,4.74
2023-01-23T05:09:08.777Z,4.7
2023-01-23T05:10:08.355Z,4.74
2023-01-23T05:11:08.156Z,4.74
2023-01-23T05:12:08.928Z,4.74
2023-01-23T05:13:08.744Z,4.77
2023-01-23T05:14:08.785Z,4.77
2023-01-23T05:15:06.818Z,4.77
2023-01-23T05:16:08.578Z,4.8
2023-01-23T05:17:08.983Z,4.84
2023-01-23T05:18:08.126Z,4.84
2023-01-23T05:19:08.346Z,4.84
2023-01-23T05:20:08.759Z,4.87
2023-01-23T05:21:08.490Z,4.87
2023-01-23T05:22:08.553Z,4.9
2023-01-23T05:23:08.568Z,4.9
2023-01-23T05:24:08.383Z,4.9
2023-01-23T05:25:08.557Z,4.9
2023-01-23T05:26:08.478Z,4.87
2023-01-23T05:27:08.989Z,4.87
2023-01-23T05:28:11.508Z,4.87
2023-01-23T05:29:08.536Z,4.84
2023-01-23T05:30:08.943Z,4.8
2023-01-23T05:31:08.247Z,4.8
2023-01-23T05:32:08.398Z,4.84
2023-01-23T05:33:08.131Z,4.8
2023-01-23T05:34:08.850Z,4.8
2023-01-23T05:35:08.233Z,4.8
2023-01-23T05:36:09.518Z,4.8
2023-01-23T05:37:08.982Z,4.84
2023-01-23T05:38:08.960Z,4.8
2023-01-23T05:39:08.581Z,4.84
2023-01-23T05:40:08.423Z,4.84
2023-01-23T05:41:09.003Z,4.87
2023-01-23T05:42:08.271Z,4.87
2023-01-23T05:43:08.657Z,4.87
2023-01-23T05:44:09.243Z,4.9
2023-01-23T05:45:08.319Z,5.01
2023-01-23T05:46:08.801Z,5.04
2023-01-23T05:47:08.349Z,5.08
2023-01-23T05:48:08.583Z,5.08
2023-01-23T05:49:08.484Z,5.15
2023-01-23T05:50:08.676Z,5.11
2023-01-23T05:51:08.609Z,5.11
2023-01-23T05:52:08.886Z,5.11
2023-01-23T05:53:08.860Z,5.18
2023-01-23T05:54:08.100Z,5.15
2023-01-23T05:55:08.304Z,5.11
2023-01-23T05:56:08.888Z,5.11
2023-01-23T05:57:08.337Z,5.08
2023-01-23T05:58:06.970Z,5.15
2023-01-23T05:59:08.409Z,5.15
2023-01-23T06:00:08.452Z,5.15
2023-01-23T06:01:08.190Z,5.11
2023-01-23T06:02:08.723Z,5.08
2023-01-23T06:03:08.208Z,5.08
2023-01-23T06:04:08.220Z,5.08
2023-01-23T06:05:08.425Z,5.04
2023-01-23T06:06:08.875Z,5.01
2023-01-23T06:07:08.852Z,5.01
2023-01-23T06:08:09.638Z,5.01
2023-01-23T06:09:08.339Z,5.04
2023-01-23T06:10:09.954Z,5.04
2023-01-23T06:11:08.782Z,5.04
2023-01-23T06:12:08.989Z,5.04
2023-01-23T06:13:08.205Z,5.04
2023-01-23T06:14:08.320Z,5.08
2023-01-23T06:15:08.641Z,5.04
2023-01-23T06:16:10.655Z,5.04
2023-01-23T06:17:09.090Z,5.04
2023-01-23T06:18:08.242Z,5.04
2023-01-23T06:19:08.225Z,5.04
2023-01-23T06:20:07.187Z,5.04
2023-01-23T06:21:08.444Z,5.08
2023-01-23T06:23:08.424Z,5.08
2023-01-23T06:24:09.007Z,5.11
2023-01-23T06:25:08.951Z,5.11
2023-01-23T06:26:08.508Z,5.11
2023-01-23T06:27:08.487Z,5.11
2023-01-23T06:28:08.277Z,5.11
2023-01-23T06:29:08.622Z,5.11
2023-01-23T06:30:08.010Z,5.15
2023-01-23T06:31:08.312Z,5.15
2023-01-23T06:32:08.316Z,5.11
2023-01-23T06:33:08.598Z,5.15
2023-01-23T06:34:09.456Z,5.11
2023-01-23T06:35:08.335Z,5.11
2023-01-23T06:36:08.361Z,5.08
2023-01-23T06:37:08.633Z,5.08
2023-01-23T06:38:08.315Z,5.11
2023-01-23T06:39:08.442Z,5.11
2023-01-23T06:40:09.196Z,5.11
2023-01-23T06:41:08.522Z,5.11
2023-01-23T06:42:08.581Z,5.11
2023-01-23T06:43:08.929Z,5.11
2023-01-23T06:44:07.137Z,5.15
2023-01-23T06:45:08.785Z,5.15
2023-01-23T06:46:09.016Z,5.11
2023-01-23T06:47:09.117Z,5.11
2023-01-23T06:48:08.089Z,5.11
2023-01-23T06:49:08.766Z,5.11
2023-01-23T06:50:09.259Z,5.11
2023-01-23T06:51:08.844Z,5.11
2023-01-23T06:52:08.886Z,5.15
2023-01-23T06:53:08.945Z,5.11
2023-01-23T06:54:09.289Z,5.15
2023-01-23T06:55:09.246Z,5.15
2023-01-23T06:56:08.240Z,5.15
2023-01-23T06:57:09.359Z,5.18
2023-01-23T06:58:09.448Z,5.18
2023-01-23T06:59:08.369Z,5.18
2023-01-23T07:00:08.111Z,5.18
2023-01-23T07:01:09.049Z,5.18
2023-01-23T07:02:09.117Z,5.18
2023-01-23T07:03:08.427Z,5.18
2023-01-23T07:04:08.072Z,5.18
2023-01-23T07:05:08.025Z,5.22
2023-01-23T07:06:09.162Z,5.18
2023-01-23T07:07:08.471Z,5.22
2023-01-23T07:08:08.609Z,5.22
2023-01-23T07:09:08.285Z,5.22
2023-01-23T07:10:08.566Z,5.22
2023-01-23T07:11:08.464Z,5.22
2023-01-23T07:12:08.973Z,5.22
2023-01-23T07:13:08.574Z,5.22
2023-01-23T07:14:08.016Z,5.22
2023-01-23T07:15:08.810Z,5.22
2023-01-23T07:16:08.420Z,5.22
2023-01-23T07:17:08.717Z,5.22
2023-01-23T07:18:08.695Z,5.22
2023-01-23T07:19:08.696Z,5.22
2023-01-23T07:20:08.597Z,5.22
2023-01-23T07:21:08.873Z,5.22
2023-01-23T07:22:08.120Z,5.22
2023-01-23T07:23:08.210Z,5.22
2023-01-23T07:24:08.317Z,5.25
2023-01-23T07:25:08.822Z,5.22
2023-01-23T07:26:08.767Z,5.25
2023-01-23T07:27:08.573Z,5.25
2023-01-23T07:28:07.213Z,5.25
2023-01-23T07:30:08.580Z,5.25
2023-01-23T07:31:08.569Z,5.29
2023-01-23T07:32:10.944Z,5.29
2023-01-23T07:33:08.592Z,5.33
2023-01-23T07:34:08.380Z,5.33
2023-01-23T07:35:08.415Z,5.29
2023-01-23T07:36:08.812Z,5.25
2023-01-23T07:37:09.055Z,5.25
2023-01-23T07:38:09.991Z,5.29
2023-01-23T07:39:08.368Z,5.29
2023-01-23T07:40:08.216Z,5.29
2023-01-23T07:41:08.640Z,5.25
2023-01-23T07:42:08.317Z,5.29
2023-01-23T07:43:08.660Z,5.33
2023-01-23T07:44:08.763Z,5.29
2023-01-23T07:45:08.953Z,5.33
2023-01-23T07:46:09.187Z,5.33
2023-01-23T07:47:08.552Z,5.29
2023-01-23T07:48:08.000Z,5.33
2023-01-23T07:49:08.094Z,5.29
2023-01-23T07:50:08.799Z,5.29
2023-01-23T07:51:07.565Z,5.29
2023-01-23T07:52:08.644Z,5.25
2023-01-23T07:53:08.615Z,5.29
2023-01-23T07:54:08.518Z,5.25
2023-01-23T07:55:08.066Z,5.29
2023-01-23T07:56:08.566Z,5.25
2023-01-23T07:57:08.185Z,5.29
2023-01-23T07:58:08.227Z,5.29
2023-01-23T07:59:09.083Z,5.29
2023-01-23T08:00:08.396Z,5.29
2023-01-23T08:01:08.874Z,5.29
2023-01-23T08:02:08.680Z,5.29
2023-01-23T08:03:08.878Z,5.33
2023-01-23T08:04:08.986Z,5.29
2023-01-23T08:05:08.797Z,5.29
2023-01-23T08:06:08.004Z,5.25
2023-01-23T08:07:08.595Z,5.25
2023-01-23T08:08:13.424Z,5.25
2023-01-23T08:09:08.459Z,5.25
2023-01-23T08:10:09.443Z,5.29
2023-01-23T08:11:08.728Z,5.29
2023-01-23T08:12:08.773Z,5.29
2023-01-23T08:13:06.892Z,5.33
2023-01-23T08:14:08.333Z,5.33
2023-01-23T08:15:07.997Z,5.33
2023-01-23T08:16:10.871Z,5.33
2023-01-23T08:17:08.490Z,5.33
2023-01-23T08:18:08.863Z,5.33
2023-01-23T08:19:08.507Z,5.29
2023-01-23T08:20:09.097Z,5.29
2023-01-23T08:21:08.109Z,5.29
2023-01-23T08:22:09.069Z,5.29
2023-01-23T08:23:08.090Z,5.29
2023-01-23T08:24:08.014Z,5.33
2023-01-23T08:25:07.989Z,5.36
2023-01-23T08:26:08.144Z,5.33
2023-01-23T08:27:08.412Z,5.33
2023-01-23T08:28:08.681Z,5.33
2023-01-23T08:29:08.766Z,5.36
2023-01-23T08:30:09.002Z,5.4
2023-01-23T08:31:08.873Z,5.4
2023-01-23T08:32:08.867Z,5.44
2023-01-23T08:33:09.158Z,5.47
2023-01-23T08:34:08.735Z,5.47
2023-01-23T08:35:07.243Z,5.51
2023-01-23T08:37:08.340Z,5.47
2023-01-23T08:38:08.507Z,5.47
2023-01-23T08:39:09.241Z,5.47
2023-01-23T08:40:08.472Z,5.47
2023-01-23T08:41:08.460Z,5.47
2023-01-23T08:42:08.791Z,5.47
2023-01-23T08:43:08.248Z,5.47
2023-01-23T08:44:08.393Z,5.47
2023-01-23T08:45:08.533Z,5.44
2023-01-23T08:46:09.056Z,5.44
2023-01-23T08:47:08.647Z,5.47
2023-01-23T08:48:08.455Z,5.47
2023-01-23T08:49:11.186Z,5.44
2023-01-23T08:50:08.773Z,5.47
2023-01-23T08:51:08.301Z,5.44
2023-01-23T08:52:08.674Z,5.44
2023-01-23T08:53:08.853Z,5.44
2023-01-23T08:54:08.599Z,5.47
2023-01-23T08:55:08.385Z,5.47
2023-01-23T08:56:09.108Z,5.47
2023-01-23T08:57:09.073Z,5.47
2023-01-23T08:58:08.744Z,5.55
2023-01-23T08:59:07.537Z,5.55
2023-01-23T09:00:07.987Z,5.51
2023-01-23T09:01:08.469Z,5.55
2023-01-23T09:02:08.076Z,5.55
2023-01-23T09:03:11.113Z,5.55
2023-01-23T09:04:08.683Z,5.55
2023-01-23T09:05:09.280Z,5.55
2023-01-23T09:06:08.054Z,5.51
2023-01-23T09:07:08.324Z,5.51
2023-01-23T09:08:08.060Z,5.51
2023-01-23T09:09:08.285Z,5.55
2023-01-23T09:10:09.371Z,5.55
2023-01-23T09:11:09.018Z,5.55
2023-01-23T09:12:09.543Z,5.59
2023-01-23T09:13:08.850Z,5.59
2023-01-23T09:14:08.626Z,5.59
2023-01-23T09:15:08.337Z,5.59
2023-01-23T09:16:08.660Z,5.59
2023-01-23T09:17:09.131Z,5.59
2023-01-23T09:18:09.096Z,5.59
2023-01-23T09:19:08.104Z,5.59
2023-01-23T09:20:08.090Z,5.62
2023-01-23T09:21:08.898Z,5.62
2023-01-23T09:22:08.770Z,5.62
2023-01-23T09:23:09.409Z,5.66
2023-01-23T09:24:08.631Z,5.74
2023-01-23T09:25:08.043Z,5.7
2023-01-23T09:26:08.839Z,5.7
2023-01-23T09:27:08.256Z,5.74
2023-01-23T09:28:08.755Z,5.74
2023-01-23T09:29:09.025Z,5.74
2023-01-23T09:30:08.295Z,5.74
2023-01-23T09:31:08.181Z,5.74
2023-01-23T09:32:08.945Z,5.74
2023-01-23T09:33:08.023Z,5.74
2023-01-23T09:34:09.197Z,5.74
2023-01-23T09:35:08.001Z,5.78
2023-01-23T09:36:08.566Z,5.78
2023-01-23T09:37:08.356Z,5.86
2023-01-23T09:38:09.538Z,5.86
2023-01-23T09:39:08.201Z,5.9
2023-01-23T09:40:08.683Z,5.9
2023-01-23T09:41:08.596Z,5.94
2023-01-23T09:42:08.403Z,5.9
2023-01-23T09:43:08.393Z,5.9
2023-01-23T09:45:07.987Z,5.9
2023-01-23T09:46:08.479Z,5.98
2023-01-23T09:47:08.975Z,5.94
2023-01-23T09:48:08.563Z,5.98
2023-01-23T09:49:08.346Z,5.98
2023-01-23T09:50:08.559Z,6.02
2023-01-23T09:51:08.619Z,6.06
2023-01-23T09:52:08.682Z,6.06
2023-01-23T09:53:08.237Z,6.06
2023-01-23T09:54:09.648Z,6.06
2023-01-23T09:55:08.682Z,6.1
2023-01-23T09:56:08.300Z,6.1
2023-01-23T09:57:08.398Z,6.14
2023-01-23T09:58:08.277Z,6.14
2023-01-23T09:59:08.198Z,6.18
2023-01-23T10:00:08.117Z,6.18
2023-01-23T10:01:09.228Z,6.14
2023-01-23T10:02:08.508Z,6.22
2023-01-23T10:03:08.793Z,6.18
2023-01-23T10:04:09.216Z,6.18
2023-01-23T10:05:08.297Z,6.18
2023-01-23T10:06:07.116Z,6.18
2023-01-23T10:07:08.091Z,6.22
2023-01-23T10:08:08.445Z,6.18
2023-01-23T10:09:09.119Z,6.22
2023-01-23T10:10:08.824Z,6.27
2023-01-23T10:11:08.824Z,6.27
2023-01-23T10:12:08.165Z,6.22
2023-01-23T10:13:09.201Z,6.22
2023-01-23T10:14:08.470Z,6.27
2023-01-23T10:15:08.652Z,6.22
2023-01-23T10:16:08.102Z,6.18
2023-01-23T10:17:08.504Z,6.18
2023-01-23T10:18:08.950Z,6.18
2023-01-23T10:19:08.304Z,6.27
2023-01-23T10:20:08.451Z,6.22
2023-01-23T10:21:09.530Z,6.22
2023-01-23T10:22:08.485Z,6.27
2023-01-23T10:23:09.426Z,6.22
2023-01-23T10:24:08.416Z,6.22
2023-01-23T10:25:08.308Z,6.22
2023-01-23T10:26:07.979Z,6.18
2023-01-23T10:27:09.315Z,6.18
2023-01-23T10:28:10.685Z,6.22
2023-01-23T10:29:09.012Z,6.22
2023-01-23T10:30:09.172Z,6.22
2023-01-23T10:31:08.299Z,6.22
2023-01-23T10:32:08.063Z,6.31
2023-01-23T10:33:08.620Z,6.27
2023-01-23T10:34:08.086Z,6.27
2023-01-23T10:35:08.041Z,6.27
2023-01-23T10:36:09.426Z,6.27
2023-01-23T10:37:08.385Z,6.31
2023-01-23T10:38:08.426Z,6.35
2023-01-23T10:39:08.526Z,6.35
2023-01-23T10:40:08.353Z,6.31
2023-01-23T10:41:08.181Z,6.31
2023-01-23T10:42:08.574Z,6.27
2023-01-23T10:43:07.983Z,6.22
2023-01-23T10:44:08.257Z,6.22
2023-01-23T10:45:08.536Z,6.18
2023-01-23T10:46:08.259Z,6.18
2023-01-23T10:47:09.311Z,6.18
2023-01-23T10:48:16.106Z,6.22
2023-01-23T10:49:07.897Z,6.22
2023-01-23T10:50:08.180Z,6.27
2023-01-23T10:51:08.901Z,6.27
2023-01-23T10:52:08.114Z,6.27
2023-01-23T10:53:08.133Z,6.27
2023-01-23T10:54:08.841Z,6.22
2023-01-23T10:55:08.696Z,6.22
2023-01-23T10:56:08.497Z,6.27
2023-01-23T10:57:08.765Z,6.27
2023-01-23T10:58:09.588Z,6.31
2023-01-23T10:59:08.059Z,6.27
2023-01-23T11:00:09.502Z,6.22
2023-01-23T11:01:08.287Z,6.22
2023-01-23T11:02:08.619Z,6.22
2023-01-23T11:03:08.584Z,6.18
2023-01-23T11:04:08.359Z,6.18
2023-01-23T11:05:08.001Z,6.18
2023-01-23T11:06:08.048Z,6.22
2023-01-23T11:07:08.016Z,6.27
2023-01-23T11:08:08.321Z,6.27
2023-01-23T11:09:08.920Z,6.27
2023-01-23T11:10:09.339Z,6.35
2023-01-23T11:11:08.313Z,6.35
2023-01-23T11:12:09.018Z,6.35
2023-01-23T11:13:07.342Z,6.31
2023-01-23T11:14:08.523Z,6.31
2023-01-23T11:15:08.056Z,6.27
2023-01-23T11:16:09.313Z,6.27
2023-01-23T11:17:08.403Z,6.31
2023-01-23T11:18:08.600Z,6.31
2023-01-23T11:19:08.605Z,6.31
2023-01-23T11:20:08.983Z,6.35
2023-01-23T11:21:09.109Z,6.35
2023-01-23T11:22:09.062Z,6.35
2023-01-23T11:23:08.799Z,6.35
2023-01-23T11:24:08.148Z,6.35
2023-01-23T11:25:08.834Z,6.39
2023-01-23T11:26:09.323Z,6.35
2023-01-23T11:27:09.538Z,6.39
2023-01-23T11:28:08.679Z,6.44
2023-01-23T11:29:10.010Z,6.35
2023-01-23T11:30:08.607Z,6.39
2023-01-23T11:31:14.618Z,6.44
2023-01-23T11:32:08.347Z,6.39
2023-01-23T11:33:08.425Z,6.44
2023-01-23T11:34:08.811Z,6.39
2023-01-23T11:35:08.702Z,6.39
2023-01-23T11:36:07.990Z,6.39
2023-01-23T11:37:08.794Z,6.35
2023-01-23T11:38:08.634Z,6.35
2023-01-23T11:39:08.752Z,6.35
2023-01-23T11:40:08.651Z,6.31
2023-01-23T11:41:08.711Z,6.31
2023-01-23T11:42:08.163Z,6.31
2023-01-23T11:43:08.046Z,6.31
2023-01-23T11:44:11.318Z,6.35
2023-01-23T11:45:09.719Z,6.31
2023-01-23T11:46:08.652Z,6.31
2023-01-23T11:47:09.141Z,6.35
2023-01-23T11:48:08.608Z,6.35
2023-01-23T11:49:08.387Z,6.39
2023-01-23T11:50:08.499Z,6.31
2023-01-23T11:51:08.147Z,6.31
2023-01-23T11:52:08.990Z,6.35
2023-01-23T11:53:08.718Z,6.35
2023-01-23T11:54:08.366Z,6.35
2023-01-23T11:55:08.326Z,6.39
2023-01-23T11:56:08.341Z,6.44
2023-01-23T11:57:08.912Z,6.44
2023-01-23T11:58:08.441Z,6.39
2023-01-23T11:59:08.389Z,6.44
2023-01-23T12:00:08.671Z,6.44
2023-01-23T12:01:08.215Z,6.39
2023-01-23T12:02:07.993Z,6.44
2023-01-23T12:03:08.603Z,6.48
2023-01-23T12:04:08.189Z,6.48
2023-01-23T12:05:08.257Z,6.48
2023-01-23T12:06:19.547Z,6.44
2023-01-23T12:07:08.857Z,6.44
2023-01-23T12:08:08.295Z,6.44
2023-01-23T12:09:08.347Z,6.48
2023-01-23T12:10:08.761Z,6.44
2023-01-23T12:11:08.574Z,6.48
2023-01-23T12:12:08.442Z,6.52
2023-01-23T12:13:08.425Z,6.48
2023-01-23T12:14:09.738Z,6.44
2023-01-23T12:15:08.047Z,6.44
2023-01-23T12:16:08.763Z,6.44
2023-01-23T12:17:09.705Z,6.39
2023-01-23T12:18:08.110Z,6.44
2023-01-23T12:19:08.377Z,6.44
2023-01-23T12:20:08.625Z,6.52
2023-01-23T12:21:07.837Z,6.57
2023-01-23T12:22:07.987Z,6.61
2023-01-23T12:23:09.076Z,6.57
2023-01-23T12:24:08.701Z,6.57
2023-01-23T12:25:08.890Z,6.65
2023-01-23T12:26:08.546Z,6.7
2023-01-23T12:27:08.751Z,6.65
2023-01-23T12:28:08.054Z,6.7
2023-01-23T12:29:08.033Z,6.7
2023-01-23T12:30:08.857Z,6.7
2023-01-23T12:31:08.055Z,6.61
2023-01-23T12:32:08.848Z,6.57
2023-01-23T12:33:08.293Z,6.48
2023-01-23T12:34:07.992Z,6.52
2023-01-23T12:35:09.417Z,6.48
2023-01-23T12:36:08.026Z,6.57
2023-01-23T12:37:16.808Z,6.57
2023-01-23T12:38:09.047Z,6.57
2023-01-23T12:39:08.577Z,6.52
2023-01-23T12:40:08.775Z,6.48
2023-01-23T12:41:09.107Z,6.44
2023-01-23T12:42:09.164Z,6.39
2023-01-23T12:43:07.426Z,6.44
2023-01-23T12:44:09.104Z,6.52
2023-01-23T12:45:08.784Z,6.52
2023-01-23T12:46:08.326Z,6.48
2023-01-23T12:47:08.938Z,6.48
2023-01-23T12:48:08.696Z,6.44
2023-01-23T12:49:08.056Z,6.44
2023-01-23T12:50:07.998Z,6.44
2023-01-23T12:51:08.585Z,6.44
2023-01-23T12:52:08.061Z,6.39
2023-01-23T12:53:08.494Z,6.39
2023-01-23T12:54:08.995Z,6.39
2023-01-23T12:55:08.209Z,6.48
2023-01-23T12:56:08.558Z,6.44
2023-01-23T12:57:09.377Z,6.44
2023-01-23T12:58:09.736Z,6.44
2023-01-23T12:59:08.266Z,6.35
2023-01-23T13:00:08.092Z,6.39
2023-01-23T13:01:09.050Z,6.44
2023-01-23T13:02:08.722Z,6.44
2023-01-23T13:03:08.036Z,6.44
2023-01-23T13:04:09.187Z,6.44
2023-01-23T13:05:09.594Z,6.48
2023-01-23T13:07:08.586Z,6.48
2023-01-23T13:08:08.624Z,6.52
2023-01-23T13:09:17.748Z,6.52
2023-01-23T13:10:08.791Z,6.52
2023-01-23T13:11:09.066Z,6.52
2023-01-23T13:12:08.354Z,6.52
2023-01-23T13:13:08.629Z,6.44
2023-01-23T13:14:08.294Z,6.48
2023-01-23T13:15:14.144Z,6.44
2023-01-23T13:16:08.642Z,6.39
2023-01-23T13:17:08.749Z,6.39
2023-01-23T13:18:08.473Z,6.44
2023-01-23T13:19:08.193Z,6.39
2023-01-23T13:20:08.228Z,6.31
2023-01-23T13:21:08.554Z,6.31
2023-01-23T13:22:09.479Z,6.39
2023-01-23T13:23:08.794Z,6.39
2023-01-23T13:24:08.368Z,6.39
2023-01-23T13:25:08.532Z,6.35
2023-01-23T13:26:07.990Z,6.35
2023-01-23T13:27:08.542Z,6.39
2023-01-23T13:28:07.929Z,6.35
2023-01-23T13:29:08.338Z,6.31